Time;durP1;ratioP1;P1;durP2;ratioP2;P2;SDS_P1;SDS_P2;PMS_P1;PMS_P2;Temp;Humidity;BMP_temperature;BMP_pressure;BME280_temperature;BME280_humidity;BME280_pressure;Samples;Min_cycle;Max_cycle;Signal;HPM_P1;HPM_P2
2021/12/05 00:19:02;;;;;;;7.10;4.60;;;1.00;99.90;;;;;;5050734;28;20483;-69
2021/12/05 00:21:40;;;;;;;6.77;3.80;;;1.00;99.90;;;;;;5050252;28;20828;-70
2021/12/05 00:24:12;;;;;;;13.57;7.37;;;1.00;99.90;;;;;;5050117;28;20417;-69
2021/12/05 00:26:41;;;;;;;16.80;8.33;;;1.00;99.90;;;;;;5050538;28;20853;-68
2021/12/05 00:29:18;;;;;;;5.73;4.30;;;1.00;99.90;;;;;;5049769;28;20440;-70
2021/12/05 00:31:57;;;;;;;6.83;4.40;;;1.00;99.90;;;;;;5048894;28;20766;-70
2021/12/05 00:34:45;;;;;;;5.27;4.77;;;1.00;99.90;;;;;;5050284;28;20392;-70
2021/12/05 00:40:30;;;;;;;11.10;6.40;;;1.00;99.90;;;;;;5049928;28;20507;-69
2021/12/05 00:48:42;;;;;;;7.27;4.97;;;0.90;99.90;;;;;;5029647;28;20433;-69
2021/12/05 01:02:15;;;;;;;3.93;3.60;;;0.90;99.90;;;;;;5049508;28;20403;-68
2021/12/05 01:07:16;;;;;;;6.43;5.40;;;0.90;99.90;;;;;;5050350;28;20491;-69
2021/12/05 01:09:49;;;;;;;6.50;3.50;;;0.90;99.90;;;;;;5049131;28;20823;-68
2021/12/05 01:12:40;;;;;;;10.13;5.40;;;0.90;99.90;;;;;;5050259;28;20419;-69
2021/12/05 01:15:10;;;;;;;15.47;8.00;;;1.00;99.90;;;;;;5049833;28;20417;-69
2021/12/05 01:17:55;;;;;;;3.63;3.10;;;0.90;99.90;;;;;;5049589;28;20453;-68
2021/12/05 01:20:21;;;;;;;7.10;4.60;;;1.00;99.90;;;;;;5049254;28;20959;-68
2021/12/05 01:22:59;;;;;;;5.67;5.23;;;1.00;99.90;;;;;;5049749;28;20444;-68
2021/12/05 01:25:39;;;;;;;4.40;3.97;;;1.00;99.90;;;;;;5049120;28;20525;-68
2021/12/05 01:31:17;;;;;;;4.63;4.23;;;1.00;99.90;;;;;;5027076;28;20433;-69
2021/12/05 01:36:40;;;;;;;7.07;4.47;;;1.00;99.90;;;;;;5048158;28;20444;-69
2021/12/05 01:42:31;;;;;;;12.00;6.40;;;1.00;99.90;;;;;;5048272;28;20505;-68
2021/12/05 01:53:10;;;;;;;5.13;4.70;;;1.00;99.90;;;;;;5049641;28;20440;-69
2021/12/05 01:58:54;;;;;;;4.10;3.30;;;1.00;99.90;;;;;;5047245;28;20428;-70
2021/12/05 02:01:41;;;;;;;6.73;6.13;;;1.00;99.90;;;;;;5049083;28;20475;-69
2021/12/05 02:09:56;;;;;;;7.60;5.50;;;1.00;99.90;;;;;;5029164;28;20809;-69
2021/12/05 02:15:11;;;;;;;10.70;5.47;;;1.00;99.90;;;;;;5030106;28;20456;-69
2021/12/05 02:15:39;;;;;;;13.47;5.70;;;1.00;99.90;;;;;;5032945;28;20414;-69
2021/12/05 02:35:01;;;;;;;6.60;6.07;;;1.00;99.90;;;;;;5039696;28;20919;-69
2021/12/05 02:42:53;;;;;;;14.83;6.23;;;1.00;99.90;;;;;;5047397;28;20509;-69
2021/12/05 02:45:19;;;;;;;8.33;6.00;;;1.00;99.90;;;;;;5033188;28;20405;-68
2021/12/05 02:47:49;;;;;;;7.90;6.83;;;1.00;99.90;;;;;;5034406;28;20414;-68
2021/12/05 02:50:17;;;;;;;10.40;8.33;;;1.10;99.90;;;;;;5042275;28;20410;-69
2021/12/05 02:52:43;;;;;;;8.07;7.43;;;1.00;99.90;;;;;;5050877;28;20452;-69
2021/12/05 02:55:22;;;;;;;6.90;5.57;;;1.00;99.90;;;;;;5054478;28;20943;-69
2021/12/05 02:57:52;;;;;;;12.00;7.43;;;1.10;99.90;;;;;;5054221;28;20444;-67
2021/12/05 03:00:56;;;;;;;14.40;6.20;;;1.00;99.90;;;;;;5054645;28;20489;-68
2021/12/05 03:03:25;;;;;;;6.20;4.63;;;1.00;99.90;;;;;;5054543;28;20766;-68
2021/12/05 03:06:02;;;;;;;6.03;5.63;;;1.00;99.90;;;;;;5054115;28;20504;-68
2021/12/05 03:08:27;;;;;;;6.40;4.77;;;1.00;99.90;;;;;;5054308;28;20454;-68
2021/12/05 03:10:54;;;;;;;9.67;5.37;;;1.00;99.90;;;;;;5054299;28;20413;-68
2021/12/05 03:13:21;;;;;;;8.90;5.90;;;1.10;99.90;;;;;;5054077;28;20538;-68
2021/12/05 03:15:47;;;;;;;10.13;8.67;;;1.10;99.90;;;;;;5053944;28;20405;-68
2021/12/05 03:18:12;;;;;;;8.03;4.47;;;1.00;99.90;;;;;;5053941;28;20528;-68
2021/12/05 03:20:38;;;;;;;6.80;5.63;;;1.00;99.90;;;;;;5053960;28;20257;-68
2021/12/05 03:23:03;;;;;;;6.90;4.77;;;1.00;99.90;;;;;;5053440;28;20159;-68
2021/12/05 03:25:29;;;;;;;10.23;5.60;;;1.00;99.90;;;;;;5053175;28;20182;-69
2021/12/05 03:27:55;;;;;;;12.97;7.33;;;1.00;99.90;;;;;;5053936;28;20175;-69
2021/12/05 03:30:24;;;;;;;5.47;4.97;;;1.00;99.90;;;;;;5046830;28;20539;-67
2021/12/05 03:32:51;;;;;;;9.70;7.97;;;1.00;99.90;;;;;;5033774;28;20440;-68
2021/12/05 03:35:20;;;;;;;14.63;7.53;;;1.00;99.90;;;;;;5043068;28;20824;-68
2021/12/05 03:37:49;;;;;;;7.90;6.27;;;1.00;99.90;;;;;;5053611;28;20426;-68
2021/12/05 03:40:18;;;;;;;8.83;3.80;;;1.00;99.90;;;;;;5053659;28;20457;-68
2021/12/05 03:42:43;;;;;;;11.53;6.90;;;1.00;99.90;;;;;;5045820;28;20403;-68
2021/12/05 03:45:13;;;;;;;13.27;7.67;;;1.10;99.90;;;;;;5033624;28;20733;-68
2021/12/05 03:47:39;;;;;;;9.20;6.60;;;1.10;99.90;;;;;;5033744;28;20179;-69
2021/12/05 03:50:10;;;;;;;7.20;6.50;;;1.10;99.90;;;;;;5039638;28;20884;-68
2021/12/05 03:52:36;;;;;;;9.20;5.37;;;1.10;99.90;;;;;;5053706;28;20398;-68
2021/12/05 03:55:02;;;;;;;7.50;5.80;;;1.10;99.90;;;;;;5053265;28;20467;-68
2021/12/05 03:57:27;;;;;;;8.03;4.63;;;1.10;99.90;;;;;;5053696;28;20433;-68
2021/12/05 03:59:53;;;;;;;11.40;7.03;;;1.10;99.90;;;;;;5053226;28;20452;-68
2021/12/05 04:02:18;;;;;;;11.53;8.70;;;1.10;99.90;;;;;;5053350;28;20171;-68
2021/12/05 04:04:44;;;;;;;8.60;7.83;;;1.10;99.90;;;;;;5053357;28;20202;-68
2021/12/05 04:07:13;;;;;;;7.27;6.00;;;1.00;99.90;;;;;;5053295;28;20277;-68
2021/12/05 04:09:39;;;;;;;10.63;7.03;;;1.10;99.90;;;;;;5053180;28;20171;-68
2021/12/05 04:12:04;;;;;;;8.67;5.83;;;1.10;99.90;;;;;;5053946;28;20432;-68
2021/12/05 04:14:37;;;;;;;13.73;6.60;;;1.10;99.90;;;;;;5052999;28;20630;-68
2021/12/05 04:17:05;;;;;;;14.87;7.43;;;1.10;99.90;;;;;;5052807;28;20468;-67
2021/12/05 04:19:30;;;;;;;9.97;6.53;;;1.10;99.90;;;;;;5053714;28;20491;-68
2021/12/05 04:21:56;;;;;;;6.97;5.80;;;1.10;99.90;;;;;;5053382;28;20504;-68
2021/12/05 04:24:22;;;;;;;5.77;5.23;;;1.10;99.90;;;;;;5053043;28;20202;-68
2021/12/05 04:26:48;;;;;;;9.70;7.00;;;1.10;99.90;;;;;;5052936;28;20583;-69
2021/12/05 04:29:14;;;;;;;13.67;5.37;;;1.20;99.90;;;;;;5052772;28;20397;-69
2021/12/05 04:31:40;;;;;;;11.33;8.23;;;1.20;99.90;;;;;;5052880;28;20433;-70
2021/12/05 04:34:07;;;;;;;8.73;5.47;;;1.10;99.90;;;;;;5053150;28;20184;-69
2021/12/05 04:36:33;;;;;;;8.00;5.73;;;1.20;99.90;;;;;;5051713;28;20433;-70
2021/12/05 04:38:58;;;;;;;15.00;7.03;;;1.20;99.90;;;;;;5052527;28;20405;-70
2021/12/05 04:41:24;;;;;;;12.83;7.27;;;1.20;99.90;;;;;;5052907;28;20488;-70
2021/12/05 04:43:51;;;;;;;12.27;6.83;;;1.20;99.90;;;;;;5052861;28;20627;-70
2021/12/05 04:46:21;;;;;;;8.57;6.63;;;1.20;99.90;;;;;;5053275;28;20190;-70
2021/12/05 04:48:51;;;;;;;14.00;8.43;;;1.20;99.90;;;;;;5052889;28;20405;-70
2021/12/05 04:51:19;;;;;;;8.90;5.80;;;1.20;99.90;;;;;;5053006;28;20463;-70
2021/12/05 04:53:45;;;;;;;6.67;5.67;;;1.20;99.90;;;;;;5052551;28;20413;-70
2021/12/05 04:56:10;;;;;;;9.90;6.97;;;1.20;99.90;;;;;;5052330;28;20422;-70
2021/12/05 04:58:37;;;;;;;12.63;9.10;;;1.30;99.90;;;;;;5052302;28;20570;-70
2021/12/05 05:01:04;;;;;;;17.20;8.87;;;1.30;99.90;;;;;;5052102;28;20205;-70
2021/12/05 05:03:30;;;;;;;15.67;10.00;;;1.30;99.90;;;;;;5052269;28;20904;-70
2021/12/05 05:06:04;;;;;;;9.50;7.57;;;1.30;99.90;;;;;;5052100;28;20404;-71
2021/12/05 05:08:31;;;;;;;14.00;7.20;;;1.30;99.90;;;;;;5052241;28;20644;-69
2021/12/05 05:11:02;;;;;;;7.57;6.87;;;1.30;99.90;;;;;;5051753;28;20942;-69
2021/12/05 05:13:29;;;;;;;13.00;8.23;;;1.30;99.90;;;;;;5052164;28;20409;-69
2021/12/05 05:15:56;;;;;;;15.17;8.07;;;1.30;99.90;;;;;;5051726;28;20464;-69
2021/12/05 05:18:23;;;;;;;11.10;7.33;;;1.30;99.90;;;;;;5051870;28;20845;-70
2021/12/05 05:21:33;;;;;;;11.70;6.60;;;1.30;99.90;;;;;;5051810;28;20965;-70
2021/12/05 05:26:33;;;;;;;12.27;9.83;;;1.30;99.90;;;;;;5051797;28;20432;-68
2021/12/05 05:40:09;;;;;;;7.70;4.80;;;1.40;99.90;;;;;;5051757;28;20459;-69
2021/12/05 05:45:48;;;;;;;12.50;7.03;;;1.40;99.90;;;;;;5051778;28;20451;-70
2021/12/05 05:50:38;;;;;;;12.00;8.70;;;1.30;99.90;;;;;;5055898;28;20405;-69
2021/12/05 05:53:05;;;;;;;8.00;5.83;;;1.30;99.90;;;;;;5055780;28;20447;-70
2021/12/05 05:55:31;;;;;;;11.37;8.93;;;1.30;99.90;;;;;;5054368;28;20421;-69
2021/12/05 05:58:04;;;;;;;10.77;8.97;;;1.30;99.90;;;;;;5055748;28;20424;-69
2021/12/05 06:00:34;;;;;;;15.77;8.20;;;1.30;99.90;;;;;;5054027;28;20449;-70
2021/12/05 06:03:21;;;;;;;13.50;7.70;;;1.30;99.90;;;;;;5055486;28;20397;-70
2021/12/05 06:05:53;;;;;;;9.43;6.53;;;1.30;99.90;;;;;;5055483;28;20425;-67
2021/12/05 06:08:23;;;;;;;13.40;6.23;;;1.30;99.90;;;;;;5055477;28;20393;-68
2021/12/05 06:10:49;;;;;;;17.47;8.30;;;1.30;99.90;;;;;;5055406;28;20755;-68
2021/12/05 06:13:18;;;;;;;14.50;7.23;;;1.40;99.90;;;;;;5055309;28;20488;-68
2021/12/05 06:15:43;;;;;;;13.87;7.77;;;1.40;99.90;;;;;;5055333;28;20401;-69
2021/12/05 06:18:09;;;;;;;12.27;6.37;;;1.40;99.90;;;;;;5055381;28;20435;-69
2021/12/05 06:20:35;;;;;;;14.37;8.60;;;1.40;99.90;;;;;;5055105;28;20547;-69
2021/12/05 06:23:01;;;;;;;9.27;7.43;;;1.30;99.90;;;;;;5055252;28;20213;-68
2021/12/05 06:25:30;;;;;;;10.20;7.70;;;1.30;99.90;;;;;;5055072;28;20207;-68
2021/12/05 06:28:01;;;;;;;13.10;6.10;;;1.30;99.90;;;;;;5055281;28;20692;-69
2021/12/05 06:46:21;;;;;;;11.67;7.27;;;1.20;99.90;;;;;;5054910;28;20429;-68
2021/12/05 06:48:48;;;;;;;15.80;6.33;;;1.20;99.90;;;;;;5054551;28;20429;-68
2021/12/05 06:51:17;;;;;;;14.73;8.23;;;1.20;99.90;;;;;;5054694;28;20401;-68
2021/12/05 06:53:42;;;;;;;10.33;8.00;;;1.10;99.90;;;;;;5054640;28;20437;-68
2021/12/05 06:56:09;;;;;;;16.30;9.30;;;1.10;99.90;;;;;;5054360;28;20468;-68
2021/12/05 06:58:35;;;;;;;11.43;9.40;;;1.10;99.90;;;;;;5053681;28;20179;-68
2021/12/05 07:01:03;;;;;;;13.13;8.07;;;1.10;99.90;;;;;;5054016;28;20591;-68
2021/12/05 07:03:29;;;;;;;7.80;5.27;;;1.20;99.90;;;;;;5054404;28;20402;-68
2021/12/05 07:06:01;;;;;;;9.37;8.40;;;1.20;99.90;;;;;;5054320;28;20496;-69
2021/12/05 07:08:32;;;;;;;10.43;6.83;;;1.00;99.90;;;;;;5054513;28;20548;-69
2021/12/05 07:11:13;;;;;;;10.67;9.73;;;1.00;99.90;;;;;;5054138;28;20406;-68
2021/12/05 07:16:27;;;;;;;10.77;9.67;;;1.00;99.90;;;;;;5053990;28;20567;-69
2021/12/05 07:19:08;;;;;;;12.00;7.60;;;1.00;99.90;;;;;;5054033;28;20432;-69
2021/12/05 07:24:47;;;;;;;12.90;7.60;;;1.00;99.90;;;;;;5051585;28;20437;-69
2021/12/05 07:40:21;;;;;;;9.73;6.80;;;1.10;99.90;;;;;;5053822;28;20843;-68
2021/12/05 07:41:06;;;;;;;6.90;5.37;;;1.20;99.90;;;;;;5053434;28;20496;-68
2021/12/05 07:43:32;;;;;;;9.67;7.60;;;1.10;99.90;;;;;;5053795;28;20414;-68
2021/12/05 07:46:04;;;;;;;11.40;7.97;;;1.20;99.90;;;;;;5053533;28;20535;-70
2021/12/05 07:48:33;;;;;;;13.57;6.93;;;1.10;99.90;;;;;;5053534;28;20228;-68
2021/12/05 07:51:14;;;;;;;14.03;8.00;;;1.10;99.90;;;;;;5053343;28;20405;-69
2021/12/05 07:56:20;;;;;;;17.90;12.13;;;1.10;99.90;;;;;;5053415;28;20504;-69
2021/12/05 07:58:58;;;;;;;12.47;7.67;;;1.10;99.90;;;;;;5053434;28;20402;-68
2021/12/05 08:17:36;;;;;;;8.73;8.13;;;1.20;99.90;;;;;;5052946;28;20445;-68
2021/12/05 08:20:02;;;;;;;8.63;6.67;;;1.20;99.90;;;;;;5052768;28;20666;-68
2021/12/05 08:22:28;;;;;;;11.87;6.73;;;1.30;99.90;;;;;;5052743;28;20912;-68
2021/12/05 08:24:54;;;;;;;15.77;10.03;;;1.30;99.90;;;;;;5052942;28;20534;-68
2021/12/05 08:27:20;;;;;;;15.60;9.77;;;1.30;99.90;;;;;;5052715;28;20691;-68
2021/12/05 08:29:51;;;;;;;15.13;9.60;;;1.40;99.90;;;;;;5052791;28;20167;-68
2021/12/05 08:32:28;;;;;;;9.80;6.00;;;1.40;99.90;;;;;;5052580;28;20171;-67
2021/12/05 08:35:09;;;;;;;14.23;8.00;;;1.40;99.90;;;;;;5052504;28;20405;-68
2021/12/05 08:40:32;;;;;;;16.93;8.43;;;1.50;99.90;;;;;;5052450;28;20453;-68
2021/12/05 08:43:18;;;;;;;14.93;6.97;;;1.50;99.90;;;;;;5052325;28;20410;-68
2021/12/05 08:46:00;;;;;;;11.83;7.20;;;1.50;99.90;;;;;;5052316;28;20780;-69
2021/12/05 09:21:45;;;;;;;18.47;8.70;;;1.70;99.90;;;;;;5052404;28;20507;-69
2021/12/05 09:29:52;;;;;;;13.90;8.20;;;1.80;99.90;;;;;;5052325;28;21016;-68
2021/12/05 09:52:00;;;;;;;19.13;9.10;;;1.70;99.90;;;;;;5052930;28;20421;-68
2021/12/05 10:08:28;;;;;;;22.33;8.97;;;1.80;99.90;;;;;;5054114;28;20429;-68
2021/12/05 10:13:27;;;;;;;21.30;12.60;;;1.90;99.90;;;;;;5047995;28;20490;-68
2021/12/05 10:27:16;;;;;;;20.60;10.13;;;2.00;99.90;;;;;;5050961;28;20468;-69
2021/12/05 10:38:07;;;;;;;22.93;10.50;;;2.30;99.90;;;;;;5052455;28;20563;-69
2021/12/05 10:40:53;;;;;;;10.70;8.63;;;2.30;99.90;;;;;;5055529;28;20522;-68
2021/12/05 10:43:22;;;;;;;17.40;10.50;;;2.20;99.90;;;;;;5054981;28;20397;-69
2021/12/05 10:45:57;;;;;;;22.53;11.20;;;2.20;99.90;;;;;;5054531;28;20496;-68
2021/12/05 10:48:39;;;;;;;20.23;9.83;;;2.30;99.90;;;;;;5036181;28;20406;-69
2021/12/05 10:51:18;;;;;;;19.43;11.60;;;2.50;99.90;;;;;;5037306;28;20425;-69
2021/12/05 10:53:48;;;;;;;14.33;10.50;;;2.30;99.90;;;;;;5034939;28;20457;-69
2021/12/05 10:56:33;;;;;;;19.13;11.90;;;2.20;99.90;;;;;;5034602;28;20449;-69
2021/12/05 10:59:16;;;;;;;18.53;10.60;;;2.30;99.90;;;;;;5053293;28;20977;-69
2021/12/05 11:02:15;;;;;;;14.30;10.50;;;2.40;99.90;;;;;;5054437;28;20409;-70
2021/12/05 11:04:44;;;;;;;22.27;13.83;;;2.70;99.90;;;;;;5042296;28;20416;-70
2021/12/05 11:07:13;;;;;;;23.53;11.57;;;2.70;99.90;;;;;;5054051;28;20426;-69
2021/12/05 11:09:41;;;;;;;21.33;9.50;;;2.60;99.90;;;;;;5054316;28;20393;-69
2021/12/05 11:12:18;;;;;;;15.63;8.83;;;2.70;99.90;;;;;;5054334;28;20405;-70
2021/12/05 11:14:47;;;;;;;15.60;11.17;;;2.70;99.90;;;;;;5054401;28;20408;-70
2021/12/05 11:17:22;;;;;;;23.20;10.60;;;2.70;99.90;;;;;;5041317;28;20426;-69
2021/12/05 11:19:50;;;;;;;23.37;9.90;;;2.70;99.90;;;;;;5050871;28;20468;-70
2021/12/05 11:22:22;;;;;;;19.40;12.60;;;2.60;99.90;;;;;;5052634;28;20478;-70
2021/12/05 11:24:55;;;;;;;17.50;10.57;;;2.60;99.90;;;;;;5054209;28;20425;-70
2021/12/05 11:27:33;;;;;;;18.10;10.00;;;2.70;99.90;;;;;;5054308;28;20437;-69
2021/12/05 11:30:17;;;;;;;15.77;9.40;;;2.90;99.90;;;;;;5053410;28;20418;-69
2021/12/05 11:32:52;;;;;;;18.50;14.13;;;2.90;99.90;;;;;;5053940;28;20451;-69
2021/12/05 11:35:26;;;;;;;26.27;12.07;;;2.90;99.90;;;;;;5052360;28;20458;-69
2021/12/05 11:38:00;;;;;;;18.30;10.87;;;2.90;99.90;;;;;;5053890;28;20421;-69
2021/12/05 11:40:41;;;;;;;22.73;9.60;;;2.90;99.90;;;;;;5053623;28;20548;-70
2021/12/05 11:43:08;;;;;;;21.13;12.87;;;2.90;99.90;;;;;;5053977;28;20975;-68
2021/12/05 11:45:48;;;;;;;23.30;13.63;;;2.70;99.90;;;;;;5052948;28;20780;-69
2021/12/05 11:48:24;;;;;;;24.27;10.53;;;2.60;99.90;;;;;;5053765;28;20431;-70
2021/12/05 11:50:50;;;;;;;14.70;8.17;;;2.50;99.90;;;;;;5033804;28;20410;-69
2021/12/05 11:53:33;;;;;;;19.23;12.30;;;2.50;99.90;;;;;;5033536;28;20407;-69
2021/12/05 11:56:07;;;;;;;19.70;10.93;;;2.50;99.90;;;;;;5033223;28;20788;-71
2021/12/05 11:58:34;;;;;;;17.10;10.50;;;2.50;99.90;;;;;;5034041;28;20398;-69
2021/12/05 12:01:09;;;;;;;11.93;9.43;;;2.40;99.90;;;;;;5040564;28;21035;-71
2021/12/05 12:03:37;;;;;;;22.83;12.27;;;2.50;99.90;;;;;;5051984;28;20912;-70
2021/12/05 12:06:04;;;;;;;21.40;11.47;;;2.40;99.90;;;;;;5043415;28;20437;-72
2021/12/05 12:08:30;;;;;;;11.37;9.60;;;2.30;99.90;;;;;;5038521;28;20421;-69
2021/12/05 12:10:58;;;;;;;15.63;11.30;;;2.30;99.90;;;;;;5053058;28;20907;-71
2021/12/05 12:13:34;;;;;;;16.67;9.67;;;2.20;99.90;;;;;;5050604;28;20258;-70
2021/12/05 12:16:16;;;;;;;13.00;9.37;;;2.20;99.90;;;;;;5036979;28;20417;-69
2021/12/05 12:18:47;;;;;;;14.20;9.17;;;2.20;99.90;;;;;;5053348;28;21027;-71
2021/12/05 12:21:19;;;;;;;19.17;8.83;;;2.10;99.90;;;;;;5044910;28;20454;-69
2021/12/05 12:23:47;;;;;;;14.00;8.57;;;2.10;99.90;;;;;;5051807;28;20405;-71
2021/12/05 12:26:12;;;;;;;20.63;8.17;;;2.10;99.90;;;;;;5032582;28;20472;-71
2021/12/05 12:28:39;;;;;;;21.17;9.73;;;2.10;99.90;;;;;;5032913;28;20414;-71
2021/12/05 12:31:28;;;;;;;15.27;8.80;;;2.10;99.90;;;;;;5033054;28;20251;-70
2021/12/05 12:33:56;;;;;;;14.13;8.10;;;2.10;99.90;;;;;;5033295;28;20493;-72
2021/12/05 12:36:32;;;;;;;12.07;8.67;;;2.00;99.90;;;;;;5032556;28;20814;-71
2021/12/05 12:39:03;;;;;;;17.03;12.40;;;2.10;99.90;;;;;;5031364;28;20417;-71
2021/12/05 12:41:29;;;;;;;12.97;9.60;;;2.10;99.90;;;;;;5032575;28;20976;-70
2021/12/05 12:44:02;;;;;;;18.57;10.97;;;2.10;99.90;;;;;;5032741;28;20774;-73
2021/12/05 12:46:48;;;;;;;19.13;9.40;;;2.10;99.90;;;;;;5032517;28;20430;-71
2021/12/05 12:49:14;;;;;;;15.13;11.13;;;2.10;99.90;;;;;;5032372;28;20773;-73
2021/12/05 12:51:45;;;;;;;19.23;11.00;;;2.00;99.90;;;;;;5032992;28;20402;-74
2021/12/05 12:54:15;;;;;;;20.37;12.23;;;2.00;99.90;;;;;;5033851;28;20543;-71
2021/12/05 12:56:43;;;;;;;17.07;9.90;;;2.10;99.90;;;;;;5052010;28;20983;-72
2021/12/05 12:59:17;;;;;;;17.50;10.33;;;2.20;99.90;;;;;;5053012;28;20489;-72
2021/12/05 13:05:01;;;;;;;21.80;11.90;;;2.20;99.90;;;;;;5051988;28;20939;-71
2021/12/05 13:10:11;;;;;;;15.57;11.10;;;2.20;99.90;;;;;;5051981;28;20401;-73
2021/12/05 13:12:45;;;;;;;36.70;14.77;;;2.20;99.90;;;;;;5052139;28;20455;-72
2021/12/05 13:15:26;;;;;;;20.50;11.57;;;2.20;99.90;;;;;;5051778;28;20405;-72
2021/12/05 13:17:56;;;;;;;15.33;8.40;;;2.30;99.90;;;;;;5048285;28;20441;-72
2021/12/05 13:20:56;;;;;;;15.63;10.90;;;2.20;99.90;;;;;;5032121;28;20549;-72
2021/12/05 13:23:39;;;;;;;20.33;11.73;;;2.20;99.90;;;;;;5051953;28;20414;-73
2021/12/05 13:26:23;;;;;;;20.53;10.30;;;2.20;99.90;;;;;;5049285;28;20516;-73
2021/12/05 13:29:15;;;;;;;21.63;12.70;;;2.20;99.90;;;;;;5051949;28;20405;-73
2021/12/05 13:31:45;;;;;;;19.47;10.50;;;2.20;99.90;;;;;;5051996;28;20480;-73
2021/12/05 13:34:24;;;;;;;20.17;9.77;;;2.10;99.90;;;;;;5052057;28;20950;-73
2021/12/05 13:37:05;;;;;;;17.73;10.83;;;2.20;99.90;;;;;;5051036;28;20635;-73
2021/12/05 13:39:36;;;;;;;18.70;10.87;;;2.10;99.90;;;;;;5046278;28;20921;-73
2021/12/05 13:42:07;;;;;;;13.90;8.20;;;2.10;99.90;;;;;;5031961;28;20414;-73
2021/12/05 13:44:59;;;;;;;22.63;13.20;;;2.10;99.90;;;;;;5031773;28;21091;-72
2021/12/05 13:47:38;;;;;;;23.30;10.53;;;2.10;99.90;;;;;;5031329;28;20423;-71
2021/12/05 13:50:18;;;;;;;25.33;12.53;;;2.20;99.90;;;;;;5030741;28;20422;-73
2021/12/05 13:52:52;;;;;;;18.00;11.20;;;2.10;99.90;;;;;;5031749;28;20402;-73
2021/12/05 13:55:43;;;;;;;18.00;11.40;;;2.10;99.90;;;;;;5032285;28;20422;-73
2021/12/05 13:58:28;;;;;;;13.90;11.13;;;2.00;99.90;;;;;;5033286;28;20438;-74
2021/12/05 14:01:05;;;;;;;26.20;11.20;;;2.00;99.90;;;;;;5043790;28;20485;-71
2021/12/05 14:03:53;;;;;;;16.37;9.40;;;2.00;99.90;;;;;;5051729;28;20409;-72
2021/12/05 14:06:35;;;;;;;16.83;11.30;;;2.00;99.90;;;;;;5051623;28;20414;-74
2021/12/05 14:09:21;;;;;;;15.60;10.13;;;1.90;99.90;;;;;;5054073;28;20397;-73
2021/12/05 14:11:57;;;;;;;17.37;10.10;;;2.00;99.90;;;;;;5056015;28;20488;-73
2021/12/05 14:14:39;;;;;;;16.27;11.07;;;2.00;99.90;;;;;;5056742;28;20401;-73
2021/12/05 14:17:10;;;;;;;22.13;12.00;;;1.90;99.90;;;;;;5043667;28;20426;-72
2021/12/05 14:19:38;;;;;;;25.17;13.30;;;1.90;99.90;;;;;;5035661;28;20418;-73
2021/12/05 14:22:07;;;;;;;11.73;7.70;;;1.80;99.90;;;;;;5049392;28;20447;-74
2021/12/05 14:24:37;;;;;;;18.87;13.47;;;1.90;99.90;;;;;;5054373;28;20417;-73
2021/12/05 14:27:07;;;;;;;26.63;10.20;;;1.90;99.90;;;;;;5055203;28;20447;-72
2021/12/05 14:29:37;;;;;;;18.10;11.60;;;1.90;99.90;;;;;;5054971;28;20413;-74
2021/12/05 14:32:08;;;;;;;18.33;10.40;;;1.90;99.90;;;;;;5054566;28;20427;-73
2021/12/05 14:34:35;;;;;;;12.03;8.70;;;1.90;99.90;;;;;;5054787;28;20409;-73
2021/12/05 14:37:21;;;;;;;16.63;9.97;;;1.90;99.90;;;;;;5054542;28;20831;-74
2021/12/05 14:39:59;;;;;;;17.57;12.10;;;1.90;99.90;;;;;;5053198;28;20467;-73
2021/12/05 14:42:27;;;;;;;15.17;11.00;;;1.90;99.90;;;;;;5054827;28;20451;-74
2021/12/05 14:44:55;;;;;;;21.80;9.20;;;1.90;99.90;;;;;;5054470;28;20496;-74
2021/12/05 14:47:24;;;;;;;12.70;9.03;;;1.90;99.90;;;;;;5054551;28;20843;-74
2021/12/05 14:49:53;;;;;;;13.47;8.03;;;1.90;99.90;;;;;;5054344;28;20420;-71
2021/12/05 14:52:22;;;;;;;19.73;9.80;;;1.90;99.90;;;;;;5054601;28;20417;-72
2021/12/05 14:54:49;;;;;;;19.13;9.33;;;1.80;99.90;;;;;;5054661;28;20405;-74
2021/12/05 14:57:18;;;;;;;17.03;11.53;;;1.80;99.90;;;;;;5055658;28;20437;-74
2021/12/05 14:59:47;;;;;;;23.50;11.23;;;1.80;99.90;;;;;;5039765;28;21019;-72
2021/12/05 15:02:16;;;;;;;27.40;12.07;;;1.80;99.90;;;;;;5035029;28;20921;-72
2021/12/05 15:04:46;;;;;;;12.77;11.03;;;1.80;99.90;;;;;;5033391;28;20460;-72
2021/12/05 15:07:12;;;;;;;10.70;7.50;;;1.80;99.90;;;;;;5034980;28;20556;-73
2021/12/05 15:09:39;;;;;;;19.27;11.30;;;1.80;99.90;;;;;;5034508;28;20527;-72
2021/12/05 15:12:10;;;;;;;20.50;9.40;;;1.80;99.90;;;;;;5034260;28;20411;-72
2021/12/05 15:14:39;;;;;;;18.70;10.97;;;1.80;99.90;;;;;;5034462;28;20916;-72
2021/12/05 15:17:17;;;;;;;15.40;8.23;;;1.80;99.90;;;;;;5047030;28;20444;-71
2021/12/05 15:19:47;;;;;;;20.33;11.63;;;1.80;99.90;;;;;;5052941;28;20461;-72
2021/12/05 15:22:14;;;;;;;20.37;9.47;;;1.70;99.90;;;;;;5053881;28;20499;-72
2021/12/05 15:24:41;;;;;;;17.43;8.27;;;1.70;99.90;;;;;;5054042;28;20409;-72
2021/12/05 15:27:14;;;;;;;10.93;8.00;;;1.70;99.90;;;;;;5054177;28;20812;-71
2021/12/05 15:29:50;;;;;;;18.53;9.80;;;1.70;99.90;;;;;;5054353;28;20417;-72
2021/12/05 15:32:19;;;;;;;16.70;9.53;;;1.70;99.90;;;;;;5055428;28;20417;-72
2021/12/05 15:34:47;;;;;;;25.93;11.10;;;1.80;99.90;;;;;;5053575;28;21042;-72
2021/12/05 15:37:13;;;;;;;15.40;11.90;;;1.70;99.90;;;;;;5055035;28;20441;-72
2021/12/05 15:39:45;;;;;;;16.63;9.83;;;1.70;99.90;;;;;;5054172;28;20464;-72
2021/12/05 15:42:17;;;;;;;14.60;9.20;;;1.70;99.90;;;;;;5054820;28;20175;-72
2021/12/05 15:44:43;;;;;;;13.83;9.57;;;1.70;99.90;;;;;;5055403;28;20437;-70
2021/12/05 15:47:18;;;;;;;16.33;10.80;;;1.70;99.90;;;;;;5051544;28;20484;-72
2021/12/05 15:49:56;;;;;;;18.70;9.30;;;1.70;99.90;;;;;;5055784;28;20404;-73
2021/12/05 15:52:32;;;;;;;15.93;9.40;;;1.70;99.90;;;;;;5054266;28;20405;-71
2021/12/05 15:54:58;;;;;;;12.40;9.27;;;1.60;99.90;;;;;;5053595;28;20443;-72
2021/12/05 15:57:32;;;;;;;15.57;10.63;;;1.60;99.90;;;;;;5053733;28;20429;-71
2021/12/05 16:00:00;;;;;;;18.60;11.77;;;1.60;99.90;;;;;;5053426;28;20456;-72
2021/12/05 16:02:26;;;;;;;12.47;8.67;;;1.60;99.90;;;;;;5053611;28;20774;-72
2021/12/05 16:04:52;;;;;;;19.50;10.00;;;1.60;99.90;;;;;;5053543;28;20409;-72
2021/12/05 16:07:23;;;;;;;13.43;9.20;;;1.60;99.90;;;;;;5053404;28;20182;-72
2021/12/05 16:09:52;;;;;;;13.80;9.73;;;1.60;99.90;;;;;;5053358;28;20463;-73
2021/12/05 16:12:20;;;;;;;13.77;9.87;;;1.50;99.90;;;;;;5053357;28;20418;-72
2021/12/05 16:14:49;;;;;;;22.30;10.80;;;1.50;99.90;;;;;;5051541;28;20414;-73
2021/12/05 16:17:29;;;;;;;27.27;14.53;;;1.50;99.90;;;;;;5052842;28;20472;-72
2021/12/05 16:20:01;;;;;;;19.43;10.30;;;1.50;99.90;;;;;;5052786;28;20464;-72
2021/12/05 16:22:26;;;;;;;18.23;12.53;;;1.50;99.90;;;;;;5052744;28;20935;-72
2021/12/05 16:24:52;;;;;;;19.80;10.07;;;1.50;99.90;;;;;;5052690;28;20496;-72
2021/12/05 16:27:17;;;;;;;23.00;10.10;;;1.60;99.90;;;;;;5052729;28;20286;-72
2021/12/05 16:29:43;;;;;;;17.13;10.63;;;1.60;99.90;;;;;;5052425;28;20257;-73
2021/12/05 16:32:08;;;;;;;27.07;10.67;;;1.50;99.90;;;;;;5052217;28;20192;-73
2021/12/05 16:34:37;;;;;;;15.50;7.97;;;1.50;99.90;;;;;;5052588;28;20175;-72
2021/12/05 16:37:09;;;;;;;15.67;8.27;;;1.50;99.90;;;;;;5052396;28;20556;-72
2021/12/05 16:39:38;;;;;;;24.20;12.23;;;1.50;99.90;;;;;;5052352;28;20416;-71
2021/12/05 16:42:14;;;;;;;17.27;10.17;;;1.50;99.90;;;;;;5052493;28;20410;-75
2021/12/05 16:44:41;;;;;;;17.20;9.43;;;1.50;99.90;;;;;;5052498;28;20405;-72
2021/12/05 16:47:15;;;;;;;12.17;8.50;;;1.60;99.90;;;;;;5052489;28;20837;-72
2021/12/05 16:49:44;;;;;;;22.57;11.47;;;1.60;99.90;;;;;;5052572;28;20444;-72
2021/12/05 16:52:40;;;;;;;13.40;11.10;;;1.60;99.90;;;;;;5052959;28;20413;-72
2021/12/05 16:55:21;;;;;;;18.43;11.17;;;1.50;99.90;;;;;;5049622;28;20449;-71
2021/12/05 16:57:57;;;;;;;25.33;12.07;;;1.50;99.90;;;;;;5053083;28;20525;-70
2021/12/05 17:00:25;;;;;;;16.57;10.60;;;1.50;99.90;;;;;;5052556;28;20451;-73
2021/12/05 17:02:54;;;;;;;22.73;12.83;;;1.50;99.90;;;;;;5052520;28;20437;-71
2021/12/05 17:05:48;;;;;;;22.27;11.57;;;1.50;99.90;;;;;;5052138;28;20401;-72
2021/12/05 17:08:20;;;;;;;31.63;12.00;;;1.50;99.90;;;;;;5050984;28;20449;-72
2021/12/05 17:10:47;;;;;;;24.87;10.23;;;1.40;99.90;;;;;;5052456;28;20410;-72
2021/12/05 17:13:26;;;;;;;21.47;13.50;;;1.50;99.90;;;;;;5052839;28;20416;-71
2021/12/05 17:16:10;;;;;;;17.23;10.40;;;1.50;99.90;;;;;;5051866;28;20512;-72
2021/12/05 17:19:02;;;;;;;21.70;9.30;;;1.50;99.90;;;;;;5052102;28;20558;-69
2021/12/05 17:21:35;;;;;;;15.53;9.80;;;1.50;99.90;;;;;;5052062;28;20896;-70
2021/12/05 17:24:14;;;;;;;16.60;11.80;;;1.50;99.90;;;;;;5051490;28;20485;-70
2021/12/05 17:26:41;;;;;;;20.00;10.97;;;1.50;99.90;;;;;;5053023;28;20513;-70
2021/12/05 17:29:31;;;;;;;14.93;8.57;;;1.50;99.90;;;;;;5052194;28;20413;-69
2021/12/05 17:32:08;;;;;;;25.40;13.43;;;1.50;99.90;;;;;;5055111;28;20424;-70
2021/12/05 17:34:36;;;;;;;22.00;12.53;;;1.50;99.90;;;;;;5052955;28;20489;-71